Akron, New York
Current Conditions -  °F | °C
As of 9:54 PM on Friday 24 Oct 2014 (Local Time) from KBUF Reporting Station
Few Clouds Few Clouds  
Wind Chill: 51°   Ceiling: Unl
Heat Index: 51°   Visibility: 10mi
Dew Point: 45°   Wind: 8mph
Humidity: 80%   Direction: 240°WSW
Pressure: 29.95"   Gusts: NA
Location:  43.02°N, 78.5°W
Report Text: KBUF 250154Z 24007KT 10SM FEW075 FEW190 FEW280 11/07 A2995 RMK AO2 SLP145 T01060072
Loading
Personal Weather Stations






























Interactive Weather Map
Tropical Storm Tracking
New forecast layout! Learn more

10-Day Weather Forecast

Advertisements
Track Severe Weather on mobile